sensor_id;sensor_type;location;lat;lon;timestamp;pressure;altitude;pressure_sealevel;temperature
44429;BMP180;30134;47.866;-4.222;2023-07-20T00:02:16;101543.00;;;25.80
44429;BMP180;30134;47.866;-4.222;2023-07-20T00:04:41;101535.00;;;25.80
44429;BMP180;30134;47.866;-4.222;2023-07-20T00:07:07;101539.00;;;25.90
44429;BMP180;30134;47.866;-4.222;2023-07-20T00:09:33;101540.00;;;25.90
44429;BMP180;30134;47.866;-4.222;2023-07-20T00:11:59;101538.00;;;25.90
44429;BMP180;30134;47.866;-4.222;2023-07-20T00:14:27;101530.00;;;25.80
44429;BMP180;30134;47.866;-4.222;2023-07-20T00:16:55;101530.00;;;25.80
44429;BMP180;30134;47.866;-4.222;2023-07-20T00:19:26;101529.00;;;25.80
44429;BMP180;30134;47.866;-4.222;2023-07-20T00:21:54;101531.00;;;25.80
44429;BMP180;30134;47.866;-4.222;2023-07-20T00:24:20;101541.00;;;25.80
44429;BMP180;30134;47.866;-4.222;2023-07-20T00:26:47;101539.00;;;25.80
44429;BMP180;30134;47.866;-4.222;2023-07-20T00:29:13;101542.00;;;25.80
44429;BMP180;30134;47.866;-4.222;2023-07-20T00:31:39;101543.00;;;25.90
44429;BMP180;30134;47.866;-4.222;2023-07-20T00:34:05;101544.00;;;25.80
44429;BMP180;30134;47.866;-4.222;2023-07-20T00:36:32;101547.00;;;25.80
44429;BMP180;30134;47.866;-4.222;2023-07-20T00:38:58;101544.00;;;25.90
44429;BMP180;30134;47.866;-4.222;2023-07-20T00:41:24;101545.00;;;25.90
44429;BMP180;30134;47.866;-4.222;2023-07-20T00:43:55;101548.00;;;25.90
44429;BMP180;30134;47.866;-4.222;2023-07-20T00:46:23;101550.00;;;25.80
44429;BMP180;30134;47.866;-4.222;2023-07-20T00:48:51;101545.00;;;25.80
44429;BMP180;30134;47.866;-4.222;2023-07-20T00:51:20;101540.00;;;25.70
44429;BMP180;30134;47.866;-4.222;2023-07-20T00:53:46;101546.00;;;25.80
44429;BMP180;30134;47.866;-4.222;2023-07-20T00:56:13;101548.00;;;25.80
44429;BMP180;30134;47.866;-4.222;2023-07-20T00:58:39;101540.00;;;25.80
44429;BMP180;30134;47.866;-4.222;2023-07-20T01:01:05;101538.00;;;25.80
44429;BMP180;30134;47.866;-4.222;2023-07-20T01:03:31;101533.00;;;25.80
44429;BMP180;30134;47.866;-4.222;2023-07-20T01:07:11;101539.00;;;25.80
44429;BMP180;30134;47.866;-4.222;2023-07-20T01:09:20;101538.00;;;25.80
44429;BMP180;30134;47.866;-4.222;2023-07-20T01:12:20;101547.00;;;25.80
44429;BMP180;30134;47.866;-4.222;2023-07-20T01:14:49;101543.00;;;25.80
44429;BMP180;30134;47.866;-4.222;2023-07-20T01:17:15;101538.00;;;25.70
44429;BMP180;30134;47.866;-4.222;2023-07-20T01:19:44;101543.00;;;25.70
44429;BMP180;30134;47.866;-4.222;2023-07-20T01:22:48;101536.00;;;25.70
44429;BMP180;30134;47.866;-4.222;2023-07-20T01:26:02;101536.00;;;25.70
44429;BMP180;30134;47.866;-4.222;2023-07-20T01:29:16;101529.00;;;25.80
44429;BMP180;30134;47.866;-4.222;2023-07-20T01:31:44;101522.00;;;25.80
44429;BMP180;30134;47.866;-4.222;2023-07-20T01:34:12;101521.00;;;25.70
44429;BMP180;30134;47.866;-4.222;2023-07-20T01:36:42;101521.00;;;25.60
44429;BMP180;30134;47.866;-4.222;2023-07-20T01:39:09;101514.00;;;25.70
44429;BMP180;30134;47.866;-4.222;2023-07-20T01:41:35;101519.00;;;25.80
44429;BMP180;30134;47.866;-4.222;2023-07-20T01:44:04;101520.00;;;25.90
44429;BMP180;30134;47.866;-4.222;2023-07-20T01:46:31;101513.00;;;25.70
44429;BMP180;30134;47.866;-4.222;2023-07-20T01:48:58;101509.00;;;25.80
44429;BMP180;30134;47.866;-4.222;2023-07-20T01:51:24;101510.00;;;25.70
44429;BMP180;30134;47.866;-4.222;2023-07-20T01:53:50;101492.00;;;25.60
44429;BMP180;30134;47.866;-4.222;2023-07-20T01:56:17;101501.00;;;25.70
44429;BMP180;30134;47.866;-4.222;2023-07-20T01:58:44;101494.00;;;25.70
44429;BMP180;30134;47.866;-4.222;2023-07-20T02:01:10;101498.00;;;25.80
44429;BMP180;30134;47.866;-4.222;2023-07-20T02:03:36;101493.00;;;25.70
44429;BMP180;30134;47.866;-4.222;2023-07-20T02:06:02;101490.00;;;25.60
44429;BMP180;30134;47.866;-4.222;2023-07-20T02:08:28;101485.00;;;25.70
44429;BMP180;30134;47.866;-4.222;2023-07-20T02:10:54;101485.00;;;25.70
44429;BMP180;30134;47.866;-4.222;2023-07-20T02:13:20;101485.00;;;25.70
44429;BMP180;30134;47.866;-4.222;2023-07-20T02:15:46;101475.00;;;25.50
44429;BMP180;30134;47.866;-4.222;2023-07-20T02:18:15;101480.00;;;25.50
44429;BMP180;30134;47.866;-4.222;2023-07-20T02:20:42;101476.00;;;25.70
44429;BMP180;30134;47.866;-4.222;2023-07-20T02:23:10;101477.00;;;25.60
44429;BMP180;30134;47.866;-4.222;2023-07-20T02:25:36;101468.00;;;25.70
44429;BMP180;30134;47.866;-4.222;2023-07-20T02:28:04;101469.00;;;25.70
44429;BMP180;30134;47.866;-4.222;2023-07-20T02:30:30;101469.00;;;25.50
44429;BMP180;30134;47.866;-4.222;2023-07-20T02:32:57;101468.00;;;25.60
44429;BMP180;30134;47.866;-4.222;2023-07-20T02:35:24;101466.00;;;25.60
44429;BMP180;30134;47.866;-4.222;2023-07-20T02:37:50;101470.00;;;25.60
44429;BMP180;30134;47.866;-4.222;2023-07-20T02:40:16;101465.00;;;25.50
44429;BMP180;30134;47.866;-4.222;2023-07-20T02:42:42;101461.00;;;25.60
44429;BMP180;30134;47.866;-4.222;2023-07-20T02:45:09;101464.00;;;25.50
44429;BMP180;30134;47.866;-4.222;2023-07-20T02:47:35;101463.00;;;25.60
44429;BMP180;30134;47.866;-4.222;2023-07-20T02:50:07;101461.00;;;25.50
44429;BMP180;30134;47.866;-4.222;2023-07-20T02:52:34;101466.00;;;25.60
44429;BMP180;30134;47.866;-4.222;2023-07-20T02:55:00;101462.00;;;25.60
44429;BMP180;30134;47.866;-4.222;2023-07-20T02:57:26;101469.00;;;25.60
44429;BMP180;30134;47.866;-4.222;2023-07-20T02:59:52;101466.00;;;25.60
44429;BMP180;30134;47.866;-4.222;2023-07-20T03:02:19;101468.00;;;25.50
44429;BMP180;30134;47.866;-4.222;2023-07-20T03:04:45;101466.00;;;25.50
44429;BMP180;30134;47.866;-4.222;2023-07-20T03:07:11;101469.00;;;25.60
44429;BMP180;30134;47.866;-4.222;2023-07-20T03:09:37;101471.00;;;25.50
44429;BMP180;30134;47.866;-4.222;2023-07-20T03:12:04;101469.00;;;25.60
44429;BMP180;30134;47.866;-4.222;2023-07-20T03:14:30;101464.00;;;25.60
44429;BMP180;30134;47.866;-4.222;2023-07-20T03:16:56;101467.00;;;25.60
44429;BMP180;30134;47.866;-4.222;2023-07-20T03:19:22;101457.00;;;25.50
44429;BMP180;30134;47.866;-4.222;2023-07-20T03:21:49;101456.00;;;25.60
44429;BMP180;30134;47.866;-4.222;2023-07-20T03:24:16;101458.00;;;25.60
44429;BMP180;30134;47.866;-4.222;2023-07-20T03:26:42;101447.00;;;25.60
44429;BMP180;30134;47.866;-4.222;2023-07-20T03:29:09;101445.00;;;25.50
44429;BMP180;30134;47.866;-4.222;2023-07-20T03:31:35;101448.00;;;25.40
44429;BMP180;30134;47.866;-4.222;2023-07-20T03:34:01;101446.00;;;25.50
44429;BMP180;30134;47.866;-4.222;2023-07-20T03:36:28;101447.00;;;25.50
44429;BMP180;30134;47.866;-4.222;2023-07-20T03:38:55;101446.00;;;25.50
44429;BMP180;30134;47.866;-4.222;2023-07-20T03:41:21;101441.00;;;25.50
44429;BMP180;30134;47.866;-4.222;2023-07-20T03:43:50;101450.00;;;25.50
44429;BMP180;30134;47.866;-4.222;2023-07-20T03:46:16;101454.00;;;25.50
44429;BMP180;30134;47.866;-4.222;2023-07-20T03:48:42;101446.00;;;25.50
44429;BMP180;30134;47.866;-4.222;2023-07-20T03:51:08;101444.00;;;25.40
44429;BMP180;30134;47.866;-4.222;2023-07-20T03:53:34;101438.00;;;25.50
44429;BMP180;30134;47.866;-4.222;2023-07-20T03:56:00;101451.00;;;25.50
44429;BMP180;30134;47.866;-4.222;2023-07-20T03:58:26;101448.00;;;25.40
44429;BMP180;30134;47.866;-4.222;2023-07-20T04:00:52;101448.00;;;25.50
44429;BMP180;30134;47.866;-4.222;2023-07-20T04:03:19;101450.00;;;25.50
44429;BMP180;30134;47.866;-4.222;2023-07-20T04:05:46;101449.00;;;25.60
44429;BMP180;30134;47.866;-4.222;2023-07-20T04:08:12;101451.00;;;25.40
44429;BMP180;30134;47.866;-4.222;2023-07-20T04:10:39;101449.00;;;25.50
44429;BMP180;30134;47.866;-4.222;2023-07-20T04:13:05;101451.00;;;25.50
44429;BMP180;30134;47.866;-4.222;2023-07-20T04:15:32;101447.00;;;25.40
44429;BMP180;30134;47.866;-4.222;2023-07-20T04:17:58;101442.00;;;25.30
44429;BMP180;30134;47.866;-4.222;2023-07-20T04:20:24;101442.00;;;25.50
44429;BMP180;30134;47.866;-4.222;2023-07-20T04:22:53;101446.00;;;25.40
44429;BMP180;30134;47.866;-4.222;2023-07-20T04:25:19;101434.00;;;25.30
44429;BMP180;30134;47.866;-4.222;2023-07-20T04:27:45;101434.00;;;25.30
44429;BMP180;30134;47.866;-4.222;2023-07-20T04:30:12;101430.00;;;25.50
44429;BMP180;30134;47.866;-4.222;2023-07-20T04:32:39;101435.00;;;25.40
44429;BMP180;30134;47.866;-4.222;2023-07-20T04:35:09;101434.00;;;25.40
44429;BMP180;30134;47.866;-4.222;2023-07-20T04:37:35;101433.00;;;25.40
44429;BMP180;30134;47.866;-4.222;2023-07-20T04:40:01;101431.00;;;25.40
44429;BMP180;30134;47.866;-4.222;2023-07-20T04:42:27;101436.00;;;25.30
44429;BMP180;30134;47.866;-4.222;2023-07-20T04:44:53;101429.00;;;25.50
44429;BMP180;30134;47.866;-4.222;2023-07-20T04:47:19;101426.00;;;25.30
44429;BMP180;30134;47.866;-4.222;2023-07-20T04:49:47;101422.00;;;25.30
44429;BMP180;30134;47.866;-4.222;2023-07-20T04:52:14;101422.00;;;25.40
44429;BMP180;30134;47.866;-4.222;2023-07-20T04:54:40;101411.00;;;25.30
44429;BMP180;30134;47.866;-4.222;2023-07-20T04:57:11;101414.00;;;25.40
44429;BMP180;30134;47.866;-4.222;2023-07-20T04:59:37;101405.00;;;25.40
44429;BMP180;30134;47.866;-4.222;2023-07-20T05:02:03;101394.00;;;25.20
44429;BMP180;30134;47.866;-4.222;2023-07-20T05:04:29;101402.00;;;25.30
44429;BMP180;30134;47.866;-4.222;2023-07-20T05:06:55;101400.00;;;25.40
44429;BMP180;30134;47.866;-4.222;2023-07-20T05:09:21;101404.00;;;25.30
44429;BMP180;30134;47.866;-4.222;2023-07-20T05:11:48;101398.00;;;25.40
44429;BMP180;30134;47.866;-4.222;2023-07-20T05:14:14;101402.00;;;25.30
44429;BMP180;30134;47.866;-4.222;2023-07-20T05:16:40;101399.00;;;25.30
44429;BMP180;30134;47.866;-4.222;2023-07-20T05:19:12;101383.00;;;25.20
44429;BMP180;30134;47.866;-4.222;2023-07-20T05:21:38;101398.00;;;25.20
44429;BMP180;30134;47.866;-4.222;2023-07-20T05:24:05;101396.00;;;25.10
44429;BMP180;30134;47.866;-4.222;2023-07-20T05:26:31;101396.00;;;25.30
44429;BMP180;30134;47.866;-4.222;2023-07-20T05:28:59;101399.00;;;25.30
44429;BMP180;30134;47.866;-4.222;2023-07-20T05:31:25;101397.00;;;25.30
44429;BMP180;30134;47.866;-4.222;2023-07-20T05:33:52;101393.00;;;25.20
44429;BMP180;30134;47.866;-4.222;2023-07-20T05:36:18;101403.00;;;25.40
44429;BMP180;30134;47.866;-4.222;2023-07-20T05:38:44;101403.00;;;25.30
44429;BMP180;30134;47.866;-4.222;2023-07-20T05:41:10;101404.00;;;25.40
44429;BMP180;30134;47.866;-4.222;2023-07-20T05:43:36;101413.00;;;25.30
44429;BMP180;30134;47.866;-4.222;2023-07-20T05:46:02;101405.00;;;25.20
44429;BMP180;30134;47.866;-4.222;2023-07-20T05:48:28;101414.00;;;25.20
44429;BMP180;30134;47.866;-4.222;2023-07-20T05:50:54;101419.00;;;25.20
44429;BMP180;30134;47.866;-4.222;2023-07-20T05:53:20;101409.00;;;25.10
44429;BMP180;30134;47.866;-4.222;2023-07-20T05:55:53;101407.00;;;25.20
44429;BMP180;30134;47.866;-4.222;2023-07-20T05:58:19;101409.00;;;25.30
44429;BMP180;30134;47.866;-4.222;2023-07-20T06:00:48;101406.00;;;25.40
44429;BMP180;30134;47.866;-4.222;2023-07-20T06:03:15;101397.00;;;25.30
44429;BMP180;30134;47.866;-4.222;2023-07-20T06:05:43;101398.00;;;25.30
44429;BMP180;30134;47.866;-4.222;2023-07-20T06:08:09;101406.00;;;25.40
44429;BMP180;30134;47.866;-4.222;2023-07-20T06:10:35;101396.00;;;25.20
44429;BMP180;30134;47.866;-4.222;2023-07-20T06:13:01;101394.00;;;25.30
44429;BMP180;30134;47.866;-4.222;2023-07-20T06:15:32;101398.00;;;25.20
44429;BMP180;30134;47.866;-4.222;2023-07-20T06:17:59;101402.00;;;25.40
44429;BMP180;30134;47.866;-4.222;2023-07-20T06:20:26;101412.00;;;25.30
44429;BMP180;30134;47.866;-4.222;2023-07-20T06:22:53;101401.00;;;25.20
44429;BMP180;30134;47.866;-4.222;2023-07-20T06:25:21;101412.00;;;25.20
44429;BMP180;30134;47.866;-4.222;2023-07-20T06:27:49;101408.00;;;25.20
44429;BMP180;30134;47.866;-4.222;2023-07-20T06:30:15;101425.00;;;25.20
44429;BMP180;30134;47.866;-4.222;2023-07-20T06:32:41;101423.00;;;25.10
44429;BMP180;30134;47.866;-4.222;2023-07-20T06:35:08;101423.00;;;25.20
44429;BMP180;30134;47.866;-4.222;2023-07-20T06:37:35;101433.00;;;25.20
44429;BMP180;30134;47.866;-4.222;2023-07-20T06:40:02;101427.00;;;25.20
44429;BMP180;30134;47.866;-4.222;2023-07-20T06:42:31;101431.00;;;25.30
44429;BMP180;30134;47.866;-4.222;2023-07-20T06:44:58;101426.00;;;25.40
44429;BMP180;30134;47.866;-4.222;2023-07-20T06:47:24;101424.00;;;25.40
44429;BMP180;30134;47.866;-4.222;2023-07-20T06:49:50;101430.00;;;25.40
44429;BMP180;30134;47.866;-4.222;2023-07-20T06:52:16;101430.00;;;25.50
44429;BMP180;30134;47.866;-4.222;2023-07-20T06:54:42;101426.00;;;25.40
44429;BMP180;30134;47.866;-4.222;2023-07-20T06:57:09;101433.00;;;25.30
44429;BMP180;30134;47.866;-4.222;2023-07-20T06:59:35;101426.00;;;25.50
44429;BMP180;30134;47.866;-4.222;2023-07-20T07:02:01;101425.00;;;25.40
44429;BMP180;30134;47.866;-4.222;2023-07-20T07:04:28;101425.00;;;25.50
44429;BMP180;30134;47.866;-4.222;2023-07-20T07:06:54;101420.00;;;25.40
44429;BMP180;30134;47.866;-4.222;2023-07-20T07:09:20;101428.00;;;25.50
44429;BMP180;30134;47.866;-4.222;2023-07-20T07:11:46;101424.00;;;25.40
44429;BMP180;30134;47.866;-4.222;2023-07-20T07:14:12;101424.00;;;25.50
44429;BMP180;30134;47.866;-4.222;2023-07-20T07:16:38;101429.00;;;25.40
44429;BMP180;30134;47.866;-4.222;2023-07-20T07:19:06;101419.00;;;25.40
44429;BMP180;30134;47.866;-4.222;2023-07-20T07:21:34;101430.00;;;25.50
44429;BMP180;30134;47.866;-4.222;2023-07-20T07:24:03;101420.00;;;25.40
44429;BMP180;30134;47.866;-4.222;2023-07-20T07:26:34;101417.00;;;25.50
44429;BMP180;30134;47.866;-4.222;2023-07-20T07:29:00;101421.00;;;25.40
44429;BMP180;30134;47.866;-4.222;2023-07-20T07:31:28;101414.00;;;25.40
44429;BMP180;30134;47.866;-4.222;2023-07-20T07:33:54;101411.00;;;25.40
44429;BMP180;30134;47.866;-4.222;2023-07-20T07:36:20;101411.00;;;25.50
44429;BMP180;30134;47.866;-4.222;2023-07-20T07:38:47;101406.00;;;25.40
44429;BMP180;30134;47.866;-4.222;2023-07-20T07:41:14;101408.00;;;25.50
44429;BMP180;30134;47.866;-4.222;2023-07-20T07:43:40;101404.00;;;25.50
44429;BMP180;30134;47.866;-4.222;2023-07-20T07:46:06;101408.00;;;25.50
44429;BMP180;30134;47.866;-4.222;2023-07-20T07:48:31;101406.00;;;25.50
44429;BMP180;30134;47.866;-4.222;2023-07-20T07:50:57;101406.00;;;25.50
44429;BMP180;30134;47.866;-4.222;2023-07-20T07:53:23;101415.00;;;25.60
44429;BMP180;30134;47.866;-4.222;2023-07-20T07:55:52;101409.00;;;25.50
44429;BMP180;30134;47.866;-4.222;2023-07-20T07:58:18;101408.00;;;25.30
44429;BMP180;30134;47.866;-4.222;2023-07-20T08:00:44;101401.00;;;25.50
44429;BMP180;30134;47.866;-4.222;2023-07-20T08:03:10;101399.00;;;25.40
44429;BMP180;30134;47.866;-4.222;2023-07-20T08:05:36;101393.00;;;25.50
44429;BMP180;30134;47.866;-4.222;2023-07-20T08:08:03;101389.00;;;25.50
44429;BMP180;30134;47.866;-4.222;2023-07-20T08:10:31;101396.00;;;25.40
44429;BMP180;30134;47.866;-4.222;2023-07-20T08:12:57;101397.00;;;25.40
44429;BMP180;30134;47.866;-4.222;2023-07-20T08:15:24;101393.00;;;25.40
44429;BMP180;30134;47.866;-4.222;2023-07-20T08:17:52;101394.00;;;25.40
44429;BMP180;30134;47.866;-4.222;2023-07-20T08:20:19;101392.00;;;25.30
44429;BMP180;30134;47.866;-4.222;2023-07-20T08:22:45;101395.00;;;25.30
44429;BMP180;30134;47.866;-4.222;2023-07-20T08:25:11;101399.00;;;25.40
44429;BMP180;30134;47.866;-4.222;2023-07-20T08:27:37;101393.00;;;25.20
44429;BMP180;30134;47.866;-4.222;2023-07-20T08:30:04;101390.00;;;25.20
44429;BMP180;30134;47.866;-4.222;2023-07-20T08:32:32;101391.00;;;25.10
44429;BMP180;30134;47.866;-4.222;2023-07-20T08:34:58;101397.00;;;25.20
44429;BMP180;30134;47.866;-4.222;2023-07-20T08:37:25;101386.00;;;25.00
44429;BMP180;30134;47.866;-4.222;2023-07-20T08:39:51;101383.00;;;25.10
44429;BMP180;30134;47.866;-4.222;2023-07-20T08:42:17;101388.00;;;25.10
44429;BMP180;30134;47.866;-4.222;2023-07-20T08:44:44;101385.00;;;25.10
44429;BMP180;30134;47.866;-4.222;2023-07-20T08:47:12;101381.00;;;25.10
44429;BMP180;30134;47.866;-4.222;2023-07-20T08:49:39;101388.00;;;25.00
44429;BMP180;30134;47.866;-4.222;2023-07-20T08:52:06;101384.00;;;25.00
44429;BMP180;30134;47.866;-4.222;2023-07-20T08:54:34;101388.00;;;24.90
44429;BMP180;30134;47.866;-4.222;2023-07-20T08:57:05;101389.00;;;24.80
44429;BMP180;30134;47.866;-4.222;2023-07-20T08:59:32;101386.00;;;24.80
44429;BMP180;30134;47.866;-4.222;2023-07-20T09:02:00;101386.00;;;24.90
44429;BMP180;30134;47.866;-4.222;2023-07-20T09:04:26;101393.00;;;24.70
44429;BMP180;30134;47.866;-4.222;2023-07-20T09:06:53;101393.00;;;24.80
44429;BMP180;30134;47.866;-4.222;2023-07-20T09:09:19;101394.00;;;24.70
44429;BMP180;30134;47.866;-4.222;2023-07-20T09:11:52;101395.00;;;24.70
44429;BMP180;30134;47.866;-4.222;2023-07-20T09:14:18;101392.00;;;24.90
44429;BMP180;30134;47.866;-4.222;2023-07-20T09:16:54;101394.00;;;24.90
44429;BMP180;30134;47.866;-4.222;2023-07-20T09:19:21;101393.00;;;24.80
44429;BMP180;30134;47.866;-4.222;2023-07-20T09:21:50;101388.00;;;24.80
44429;BMP180;30134;47.866;-4.222;2023-07-20T09:24:18;101389.00;;;24.90
44429;BMP180;30134;47.866;-4.222;2023-07-20T09:26:47;101390.00;;;24.60
44429;BMP180;30134;47.866;-4.222;2023-07-20T09:29:19;101391.00;;;24.70
44429;BMP180;30134;47.866;-4.222;2023-07-20T09:32:03;101390.00;;;24.70
44429;BMP180;30134;47.866;-4.222;2023-07-20T09:34:33;101383.00;;;24.60
44429;BMP180;30134;47.866;-4.222;2023-07-20T09:37:00;101382.00;;;24.70
44429;BMP180;30134;47.866;-4.222;2023-07-20T09:39:29;101380.00;;;24.80
44429;BMP180;30134;47.866;-4.222;2023-07-20T09:42:00;101378.00;;;24.90
44429;BMP180;30134;47.866;-4.222;2023-07-20T09:44:30;101381.00;;;24.80
44429;BMP180;30134;47.866;-4.222;2023-07-20T09:46:56;101375.00;;;24.60
44429;BMP180;30134;47.866;-4.222;2023-07-20T09:49:22;101378.00;;;24.50
44429;BMP180;30134;47.866;-4.222;2023-07-20T09:51:48;101376.00;;;24.60
44429;BMP180;30134;47.866;-4.222;2023-07-20T09:54:15;101375.00;;;24.50
44429;BMP180;30134;47.866;-4.222;2023-07-20T09:56:42;101370.00;;;24.50
44429;BMP180;30134;47.866;-4.222;2023-07-20T09:59:09;101372.00;;;24.60
44429;BMP180;30134;47.866;-4.222;2023-07-20T10:01:35;101366.00;;;24.60
44429;BMP180;30134;47.866;-4.222;2023-07-20T10:04:04;101369.00;;;24.70
44429;BMP180;30134;47.866;-4.222;2023-07-20T10:06:33;101372.00;;;24.60
44429;BMP180;30134;47.866;-4.222;2023-07-20T10:09:02;101364.00;;;24.60
44429;BMP180;30134;47.866;-4.222;2023-07-20T10:11:35;101370.00;;;24.70
44429;BMP180;30134;47.866;-4.222;2023-07-20T10:14:04;101371.00;;;24.50
44429;BMP180;30134;47.866;-4.222;2023-07-20T10:16:35;101368.00;;;24.30
44429;BMP180;30134;47.866;-4.222;2023-07-20T10:19:42;101367.00;;;24.40
44429;BMP180;30134;47.866;-4.222;2023-07-20T10:22:27;101359.00;;;24.30
44429;BMP180;30134;47.866;-4.222;2023-07-20T10:24:58;101351.00;;;24.20
44429;BMP180;30134;47.866;-4.222;2023-07-20T10:27:24;101362.00;;;24.30
44429;BMP180;30134;47.866;-4.222;2023-07-20T10:29:52;101359.00;;;24.10
44429;BMP180;30134;47.866;-4.222;2023-07-20T10:32:20;101348.00;;;24.10
44429;BMP180;30134;47.866;-4.222;2023-07-20T10:34:52;101346.00;;;24.10
44429;BMP180;30134;47.866;-4.222;2023-07-20T10:37:53;101352.00;;;24.30
44429;BMP180;30134;47.866;-4.222;2023-07-20T10:40:38;101346.00;;;24.30
44429;BMP180;30134;47.866;-4.222;2023-07-20T10:43:07;101343.00;;;24.20
44429;BMP180;30134;47.866;-4.222;2023-07-20T10:45:50;101345.00;;;24.30
44429;BMP180;30134;47.866;-4.222;2023-07-20T10:51:20;101346.00;;;24.40
44429;BMP180;30134;47.866;-4.222;2023-07-20T10:53:49;101349.00;;;24.30
44429;BMP180;30134;47.866;-4.222;2023-07-20T10:56:21;101351.00;;;24.20
44429;BMP180;30134;47.866;-4.222;2023-07-20T10:58:48;101345.00;;;24.10
44429;BMP180;30134;47.866;-4.222;2023-07-20T11:01:18;101348.00;;;24.20
44429;BMP180;30134;47.866;-4.222;2023-07-20T11:03:49;101347.00;;;24.20
44429;BMP180;30134;47.866;-4.222;2023-07-20T11:06:43;101338.00;;;24.20
44429;BMP180;30134;47.866;-4.222;2023-07-20T11:09:11;101343.00;;;24.10
44429;BMP180;30134;47.866;-4.222;2023-07-20T11:11:46;101337.00;;;24.10
44429;BMP180;30134;47.866;-4.222;2023-07-20T11:14:22;101325.00;;;24.30
44429;BMP180;30134;47.866;-4.222;2023-07-20T11:16:52;101327.00;;;24.20
44429;BMP180;30134;47.866;-4.222;2023-07-20T11:19:24;101322.00;;;24.20
44429;BMP180;30134;47.866;-4.222;2023-07-20T11:21:56;101313.00;;;24.20
44429;BMP180;30134;47.866;-4.222;2023-07-20T11:24:23;101312.00;;;24.30
44429;BMP180;30134;47.866;-4.222;2023-07-20T11:26:54;101308.00;;;24.40
44429;BMP180;30134;47.866;-4.222;2023-07-20T11:29:23;101307.00;;;24.40
44429;BMP180;30134;47.866;-4.222;2023-07-20T11:31:51;101306.00;;;24.50
44429;BMP180;30134;47.866;-4.222;2023-07-20T11:34:20;101309.00;;;24.30
44429;BMP180;30134;47.866;-4.222;2023-07-20T11:36:51;101294.00;;;24.40
44429;BMP180;30134;47.866;-4.222;2023-07-20T11:39:21;101296.00;;;24.50
44429;BMP180;30134;47.866;-4.222;2023-07-20T11:41:57;101291.00;;;24.50
44429;BMP180;30134;47.866;-4.222;2023-07-20T11:44:26;101293.00;;;24.40
44429;BMP180;30134;47.866;-4.222;2023-07-20T11:47:09;101290.00;;;24.40
44429;BMP180;30134;47.866;-4.222;2023-07-20T11:49:43;101291.00;;;24.50
44429;BMP180;30134;47.866;-4.222;2023-07-20T11:52:16;101280.00;;;24.60
44429;BMP180;30134;47.866;-4.222;2023-07-20T11:54:43;101285.00;;;24.50
44429;BMP180;30134;47.866;-4.222;2023-07-20T11:57:20;101279.00;;;24.70
44429;BMP180;30134;47.866;-4.222;2023-07-20T12:00:02;101280.00;;;24.60
44429;BMP180;30134;47.866;-4.222;2023-07-20T12:02:37;101275.00;;;24.60
44429;BMP180;30134;47.866;-4.222;2023-07-20T12:05:05;101278.00;;;24.70
44429;BMP180;30134;47.866;-4.222;2023-07-20T12:07:36;101282.00;;;24.50
44429;BMP180;30134;47.866;-4.222;2023-07-20T12:10:10;101276.00;;;24.50
44429;BMP180;30134;47.866;-4.222;2023-07-20T12:12:42;101279.00;;;24.50
44429;BMP180;30134;47.866;-4.222;2023-07-20T12:15:25;101278.00;;;24.60
44429;BMP180;30134;47.866;-4.222;2023-07-20T12:18:01;101279.00;;;24.60
44429;BMP180;30134;47.866;-4.222;2023-07-20T12:20:37;101280.00;;;24.60
44429;BMP180;30134;47.866;-4.222;2023-07-20T12:23:13;101281.00;;;24.70
44429;BMP180;30134;47.866;-4.222;2023-07-20T12:25:45;101277.00;;;24.70
44429;BMP180;30134;47.866;-4.222;2023-07-20T12:28:17;101277.00;;;24.60
44429;BMP180;30134;47.866;-4.222;2023-07-20T12:30:45;101280.00;;;24.40
44429;BMP180;30134;47.866;-4.222;2023-07-20T12:33:11;101278.00;;;24.50
44429;BMP180;30134;47.866;-4.222;2023-07-20T12:35:43;101284.00;;;24.50
44429;BMP180;30134;47.866;-4.222;2023-07-20T12:38:09;101280.00;;;24.50
44429;BMP180;30134;47.866;-4.222;2023-07-20T12:40:35;101280.00;;;24.50
44429;BMP180;30134;47.866;-4.222;2023-07-20T12:43:02;101277.00;;;24.60
44429;BMP180;30134;47.866;-4.222;2023-07-20T12:45:28;101273.00;;;24.60
44429;BMP180;30134;47.866;-4.222;2023-07-20T12:47:54;101282.00;;;24.50
44429;BMP180;30134;47.866;-4.222;2023-07-20T12:50:20;101270.00;;;24.50
44429;BMP180;30134;47.866;-4.222;2023-07-20T12:52:46;101278.00;;;24.60
44429;BMP180;30134;47.866;-4.222;2023-07-20T12:55:12;101273.00;;;24.60
44429;BMP180;30134;47.866;-4.222;2023-07-20T12:57:38;101277.00;;;24.60
44429;BMP180;30134;47.866;-4.222;2023-07-20T13:00:10;101275.00;;;24.70
44429;BMP180;30134;47.866;-4.222;2023-07-20T13:02:38;101279.00;;;24.70
44429;BMP180;30134;47.866;-4.222;2023-07-20T13:05:05;101278.00;;;24.60
44429;BMP180;30134;47.866;-4.222;2023-07-20T13:07:41;101276.00;;;24.70
44429;BMP180;30134;47.866;-4.222;2023-07-20T13:10:09;101278.00;;;24.80
44429;BMP180;30134;47.866;-4.222;2023-07-20T13:12:36;101280.00;;;24.60
44429;BMP180;30134;47.866;-4.222;2023-07-20T13:15:04;101275.00;;;24.70
44429;BMP180;30134;47.866;-4.222;2023-07-20T13:17:38;101275.00;;;24.80
44429;BMP180;30134;47.866;-4.222;2023-07-20T13:20:07;101273.00;;;24.80
44429;BMP180;30134;47.866;-4.222;2023-07-20T13:22:39;101273.00;;;24.80
44429;BMP180;30134;47.866;-4.222;2023-07-20T13:25:07;101266.00;;;24.70
44429;BMP180;30134;47.866;-4.222;2023-07-20T13:27:34;101267.00;;;24.70
44429;BMP180;30134;47.866;-4.222;2023-07-20T13:30:00;101259.00;;;24.80
44429;BMP180;30134;47.866;-4.222;2023-07-20T13:32:27;101264.00;;;24.80
44429;BMP180;30134;47.866;-4.222;2023-07-20T13:34:54;101258.00;;;24.70
44429;BMP180;30134;47.866;-4.222;2023-07-20T13:37:20;101260.00;;;24.90
44429;BMP180;30134;47.866;-4.222;2023-07-20T13:39:46;101251.00;;;24.90
44429;BMP180;30134;47.866;-4.222;2023-07-20T13:42:12;101254.00;;;25.00
44429;BMP180;30134;47.866;-4.222;2023-07-20T13:44:38;101254.00;;;25.00
44429;BMP180;30134;47.866;-4.222;2023-07-20T13:47:05;101259.00;;;24.80
44429;BMP180;30134;47.866;-4.222;2023-07-20T13:49:31;101255.00;;;24.80
44429;BMP180;30134;47.866;-4.222;2023-07-20T13:51:58;101252.00;;;24.70
44429;BMP180;30134;47.866;-4.222;2023-07-20T13:54:25;101259.00;;;24.80
44429;BMP180;30134;47.866;-4.222;2023-07-20T13:56:51;101262.00;;;24.70